createdAt,value
2022-11-29T00:01:32.383Z,7.93
2022-11-29T00:04:01.146Z,7.73
2022-11-29T00:06:29.660Z,7.84
2022-11-29T00:08:58.068Z,7.91
2022-11-29T00:11:26.916Z,7.72
2022-11-29T00:13:53.318Z,7.57
2022-11-29T00:16:19.832Z,7.75
2022-11-29T00:18:48.834Z,7.64
2022-11-29T00:21:16.640Z,7.63
2022-11-29T00:23:43.094Z,6.97
2022-11-29T00:26:09.589Z,7.04
2022-11-29T00:28:36.993Z,7.27
2022-11-29T00:31:13.983Z,7.16
2022-11-29T00:33:40.569Z,7.26
2022-11-29T00:36:07.747Z,7.24
2022-11-29T00:38:35.610Z,7.25
2022-11-29T00:41:02.046Z,7.36
2022-11-29T00:43:28.513Z,7.63
2022-11-29T00:45:55.319Z,7.56
2022-11-29T00:48:22.005Z,7.25
2022-11-29T00:50:48.615Z,7.28
2022-11-29T00:53:15.188Z,7.44
2022-11-29T00:55:44.127Z,7.32
2022-11-29T00:58:10.965Z,7.29
2022-11-29T01:00:37.521Z,7.22
2022-11-29T01:03:04.066Z,7.18
2022-11-29T01:05:30.795Z,7.04
2022-11-29T01:07:57.388Z,7.17
2022-11-29T01:10:24.221Z,7.69
2022-11-29T01:12:51.984Z,7.70
2022-11-29T01:15:19.495Z,7.13
2022-11-29T01:17:45.912Z,7.34
2022-11-29T01:20:13.522Z,7.16
2022-11-29T01:22:40.445Z,7.11
2022-11-29T01:25:08.134Z,7.09
2022-11-29T01:27:35.013Z,7.14
2022-11-29T01:30:04.153Z,7.03
2022-11-29T01:32:31.116Z,6.89
2022-11-29T01:34:57.657Z,6.82
2022-11-29T01:37:24.194Z,7.20
2022-11-29T01:39:50.681Z,7.13
2022-11-29T01:42:17.082Z,7.17
2022-11-29T01:45:19.391Z,6.87
2022-11-29T01:47:47.515Z,6.91
2022-11-29T01:50:14.510Z,6.74
2022-11-29T01:52:42.074Z,6.62
2022-11-29T01:55:09.381Z,6.63
2022-11-29T01:57:39.418Z,6.78
2022-11-29T02:00:09.821Z,6.77
2022-11-29T02:02:42.779Z,6.88
2022-11-29T02:05:12.177Z,7.09
2022-11-29T02:07:38.810Z,7.37
2022-11-29T02:10:07.510Z,7.14
2022-11-29T02:12:42.735Z,7.69
2022-11-29T02:15:21.571Z,7.45
2022-11-29T02:18:05.069Z,7.13
2022-11-29T02:21:02.653Z,7.25
2022-11-29T02:23:58.974Z,6.78
2022-11-29T02:26:54.597Z,6.74
2022-11-29T02:29:46.841Z,7.10
2022-11-29T02:32:48.801Z,6.90
2022-11-29T02:35:30.462Z,6.71
2022-11-29T02:38:13.688Z,7.18
2022-11-29T02:40:56.162Z,7.29
2022-11-29T02:43:42.347Z,7.30
2022-11-29T02:46:26.300Z,7.07
2022-11-29T02:49:04.541Z,7.03
2022-11-29T02:51:41.126Z,6.86
2022-11-29T02:54:15.119Z,7.05
2022-11-29T02:56:46.583Z,6.88
2022-11-29T02:59:21.365Z,7.03
2022-11-29T03:01:57.799Z,7.16
2022-11-29T03:04:32.610Z,7.10
2022-11-29T03:07:05.986Z,7.25
2022-11-29T03:09:38.815Z,7.31
2022-11-29T03:12:18.348Z,7.05
2022-11-29T03:14:57.480Z,7.72
2022-11-29T03:17:32.510Z,7.76
2022-11-29T03:20:21.897Z,8.06
2022-11-29T03:23:06.930Z,7.55
2022-11-29T03:25:38.706Z,7.32
2022-11-29T03:28:11.261Z,7.28
2022-11-29T03:30:42.782Z,7.17
2022-11-29T03:33:16.251Z,6.65
2022-11-29T03:35:55.297Z,6.80
2022-11-29T03:38:28.230Z,6.70
2022-11-29T03:41:04.101Z,6.47
2022-11-29T03:43:39.255Z,6.83
2022-11-29T03:46:10.924Z,6.72
2022-11-29T03:48:43.983Z,6.98
2022-11-29T03:51:16.085Z,7.07
2022-11-29T03:53:49.060Z,6.88
2022-11-29T03:56:27.459Z,7.01
2022-11-29T03:59:03.754Z,6.66
2022-11-29T04:02:02.340Z,6.63
2022-11-29T04:05:07.260Z,6.64
2022-11-29T04:07:49.588Z,6.61
2022-11-29T04:10:35.545Z,6.81
2022-11-29T04:13:33.930Z,6.67
2022-11-29T04:16:26.718Z,6.32
2022-11-29T04:19:23.630Z,6.64
2022-11-29T04:22:11.198Z,6.39
2022-11-29T04:25:36.102Z,6.46
2022-11-29T04:28:25.219Z,6.47
2022-11-29T04:31:00.799Z,6.36
2022-11-29T04:33:57.028Z,6.36
2022-11-29T04:36:41.950Z,6.29
2022-11-29T04:39:26.329Z,6.42
2022-11-29T04:42:14.652Z,6.28
2022-11-29T04:44:55.322Z,6.20
2022-11-29T04:47:43.949Z,6.29
2022-11-29T04:50:25.455Z,6.29
2022-11-29T04:53:15.223Z,6.36
2022-11-29T04:55:50.999Z,6.49
2022-11-29T04:58:29.873Z,6.29
2022-11-29T05:01:03.894Z,6.18
2022-11-29T05:03:39.593Z,6.17
2022-11-29T05:06:19.613Z,6.48
2022-11-29T05:08:51.207Z,6.55
2022-11-29T05:11:26.992Z,6.23
2022-11-29T05:14:00.945Z,6.29
2022-11-29T05:16:51.233Z,6.17
2022-11-29T05:19:35.244Z,6.36
2022-11-29T05:22:06.135Z,6.32
2022-11-29T05:24:46.843Z,6.20
2022-11-29T05:27:22.996Z,6.23
2022-11-29T05:29:58.264Z,6.17
2022-11-29T05:32:30.839Z,6.65
2022-11-29T05:35:13.628Z,6.75
2022-11-29T05:37:45.783Z,6.62
2022-11-29T05:40:35.767Z,6.41
2022-11-29T05:43:12.593Z,6.49
2022-11-29T05:45:47.648Z,6.31
2022-11-29T05:48:24.275Z,6.68
2022-11-29T05:50:59.607Z,6.47
2022-11-29T05:53:33.951Z,6.59
2022-11-29T05:56:09.186Z,6.51
2022-11-29T05:58:47.433Z,6.52
2022-11-29T06:01:21.644Z,6.56
2022-11-29T06:03:57.951Z,6.36
2022-11-29T06:06:32.652Z,6.41
2022-11-29T06:09:04.806Z,6.75
2022-11-29T06:11:36.147Z,7.10
2022-11-29T06:14:07.444Z,6.78
2022-11-29T06:17:00.436Z,6.85
2022-11-29T06:19:52.933Z,7.37
2022-11-29T06:22:39.433Z,7.52
2022-11-29T06:25:27.683Z,7.26
2022-11-29T06:28:08.973Z,6.77
2022-11-29T06:30:47.955Z,6.76
2022-11-29T06:33:22.504Z,6.70
2022-11-29T06:35:57.522Z,7.11
2022-11-29T06:38:27.154Z,7.04
2022-11-29T06:41:00.136Z,7.14
2022-11-29T06:43:29.365Z,7.04
2022-11-29T06:46:03.853Z,6.47
2022-11-29T06:48:39.908Z,6.53
2022-11-29T06:51:10.682Z,6.24
2022-11-29T06:53:44.996Z,6.69
2022-11-29T06:56:21.342Z,6.43
2022-11-29T06:58:55.554Z,6.83
2022-11-29T07:01:35.610Z,6.58
2022-11-29T07:04:23.052Z,6.89
2022-11-29T07:06:49.914Z,6.56
2022-11-29T07:09:18.894Z,6.53
2022-11-29T07:11:46.825Z,7.08
2022-11-29T07:14:13.755Z,7.16
2022-11-29T07:16:53.155Z,7.05
2022-11-29T07:19:30.852Z,7.29
2022-11-29T07:22:05.155Z,7.13
2022-11-29T07:24:47.588Z,6.91
2022-11-29T07:27:19.802Z,7.05
2022-11-29T07:30:02.646Z,6.67
2022-11-29T07:32:42.093Z,7.32
2022-11-29T07:35:16.967Z,7.25
2022-11-29T07:37:56.985Z,7.71
2022-11-29T07:40:35.931Z,7.71
2022-11-29T07:43:22.388Z,7.14
2022-11-29T07:45:50.307Z,6.91
2022-11-29T07:48:17.432Z,7.03
2022-11-29T07:50:45.444Z,7.58
2022-11-29T07:53:16.151Z,7.50
2022-11-29T07:55:42.912Z,8.21
2022-11-29T07:58:10.989Z,7.89
2022-11-29T08:00:37.519Z,7.23
2022-11-29T08:03:04.581Z,7.37
2022-11-29T08:05:31.323Z,7.20
2022-11-29T08:07:59.747Z,7.38
2022-11-29T08:10:26.386Z,7.44
2022-11-29T08:12:53.116Z,7.11
2022-11-29T08:15:22.187Z,6.81
2022-11-29T08:17:49.235Z,6.88
2022-11-29T08:20:16.219Z,6.96
2022-11-29T08:22:43.028Z,7.02
2022-11-29T08:25:11.367Z,7.33
2022-11-29T08:27:38.217Z,7.23
2022-11-29T08:30:06.481Z,7.17
2022-11-29T08:32:33.627Z,7.01
2022-11-29T08:35:00.117Z,7.01
2022-11-29T08:37:26.560Z,6.77
2022-11-29T08:39:52.982Z,6.85
2022-11-29T08:42:20.764Z,7.06
2022-11-29T08:44:47.393Z,7.21
2022-11-29T08:47:14.027Z,7.25
2022-11-29T08:49:40.517Z,6.97
2022-11-29T08:52:06.926Z,7.15
2022-11-29T08:54:33.322Z,7.14
2022-11-29T08:57:37.430Z,7.04
2022-11-29T08:59:47.418Z,7.14
2022-11-29T09:02:13.909Z,7.75
2022-11-29T09:04:40.322Z,7.20
2022-11-29T09:07:06.839Z,7.03
2022-11-29T09:09:33.409Z,7.11
2022-11-29T09:11:59.795Z,7.26
2022-11-29T09:14:26.575Z,6.44
2022-11-29T09:16:54.416Z,6.86
2022-11-29T09:19:20.864Z,6.91
2022-11-29T09:21:47.276Z,7.10
2022-11-29T09:24:13.962Z,7.28
2022-11-29T09:26:40.350Z,7.44
2022-11-29T09:29:06.959Z,6.89
2022-11-29T09:31:34.328Z,6.67
2022-11-29T09:34:02.208Z,6.78
2022-11-29T09:36:29.643Z,7.39
2022-11-29T09:38:56.623Z,7.03
2022-11-29T09:41:38.568Z,6.78
2022-11-29T09:44:14.414Z,7.28
2022-11-29T09:46:55.826Z,6.67
2022-11-29T09:49:50.120Z,6.97
2022-11-29T09:52:26.535Z,6.99
2022-11-29T09:55:01.398Z,6.84
2022-11-29T09:57:29.479Z,6.88
2022-11-29T09:59:59.086Z,6.89
2022-11-29T10:02:36.283Z,7.14
2022-11-29T10:05:09.866Z,7.05
2022-11-29T10:07:42.781Z,7.40
2022-11-29T10:10:16.965Z,7.26
2022-11-29T10:12:48.755Z,7.61
2022-11-29T10:15:19.681Z,7.14
2022-11-29T10:17:53.186Z,6.64
2022-11-29T10:20:24.226Z,6.70
2022-11-29T10:22:55.233Z,6.80
2022-11-29T10:25:25.644Z,6.90
2022-11-29T10:27:53.234Z,7.24
2022-11-29T10:30:21.369Z,7.39
2022-11-29T10:32:51.812Z,7.03
2022-11-29T10:35:21.577Z,6.98
2022-11-29T10:38:14.479Z,7.04
2022-11-29T10:40:38.998Z,7.51
2022-11-29T10:43:05.485Z,7.94
2022-11-29T10:45:34.742Z,8.11
2022-11-29T10:48:04.669Z,7.41
2022-11-29T10:50:35.224Z,7.30
2022-11-29T10:53:05.579Z,7.62
2022-11-29T10:55:39.975Z,7.26
2022-11-29T10:58:15.791Z,7.87
2022-11-29T11:00:50.279Z,7.39
2022-11-29T11:03:24.276Z,7.49
2022-11-29T11:06:01.690Z,7.73
2022-11-29T11:08:29.422Z,7.52
2022-11-29T11:11:01.240Z,7.58
2022-11-29T11:13:30.890Z,8.01
2022-11-29T11:15:59.319Z,7.78
2022-11-29T11:18:27.132Z,7.58
2022-11-29T11:20:56.506Z,7.18
2022-11-29T11:23:26.765Z,7.39
2022-11-29T11:25:59.001Z,7.32
2022-11-29T11:28:28.141Z,7.12
2022-11-29T11:30:57.182Z,6.91
2022-11-29T11:33:26.774Z,6.90
2022-11-29T11:36:07.385Z,7.23
2022-11-29T11:38:36.640Z,6.91
2022-11-29T11:41:07.319Z,6.95
2022-11-29T11:43:34.413Z,7.24
2022-11-29T11:46:01.026Z,7.18
2022-11-29T11:48:27.821Z,7.35
2022-11-29T11:50:55.973Z,7.00
2022-11-29T11:53:24.943Z,7.04
2022-11-29T11:55:59.178Z,6.95
2022-11-29T11:58:28.713Z,7.15
2022-11-29T12:01:05.261Z,7.30
2022-11-29T12:03:45.386Z,6.88
2022-11-29T12:06:39.302Z,6.95
2022-11-29T12:09:12.266Z,7.71
2022-11-29T12:11:47.723Z,7.53
2022-11-29T12:14:23.306Z,7.61
2022-11-29T12:16:55.119Z,7.23
2022-11-29T12:19:24.961Z,7.47
2022-11-29T12:21:58.417Z,7.19
2022-11-29T12:24:30.258Z,7.04
2022-11-29T12:27:03.971Z,7.12
2022-11-29T12:29:32.157Z,7.03
2022-11-29T12:32:19.596Z,7.23
2022-11-29T12:35:00.340Z,7.41
2022-11-29T12:37:35.563Z,7.50
2022-11-29T12:40:06.413Z,7.72
2022-11-29T12:42:44.447Z,7.49
2022-11-29T12:45:34.332Z,7.37
2022-11-29T12:48:09.500Z,7.35
2022-11-29T12:50:45.283Z,7.90
2022-11-29T12:53:27.725Z,7.92
2022-11-29T12:56:04.759Z,8.03
2022-11-29T12:58:45.880Z,7.19
2022-11-29T13:01:23.046Z,7.43
2022-11-29T13:03:58.558Z,7.52
2022-11-29T13:06:31.414Z,7.77
2022-11-29T13:09:28.059Z,7.85
2022-11-29T13:11:58.221Z,7.85
2022-11-29T13:14:42.694Z,8.22
2022-11-29T13:17:25.894Z,7.62
2022-11-29T13:19:57.360Z,7.43
2022-11-29T13:22:28.711Z,7.55
2022-11-29T13:24:59.019Z,7.68
2022-11-29T13:27:29.779Z,7.54
2022-11-29T13:30:00.307Z,7.38
2022-11-29T13:32:35.927Z,7.22
2022-11-29T13:35:11.675Z,7.51
2022-11-29T13:37:45.072Z,7.71
2022-11-29T13:40:22.598Z,7.59
2022-11-29T13:42:57.870Z,7.52
2022-11-29T13:45:34.094Z,7.85
2022-11-29T13:48:24.951Z,7.58
2022-11-29T13:50:55.208Z,7.07
2022-11-29T13:53:23.823Z,7.50
2022-11-29T13:55:55.164Z,7.69
2022-11-29T13:58:34.968Z,7.30
2022-11-29T14:01:06.946Z,7.46
2022-11-29T14:03:36.282Z,7.31
2022-11-29T14:06:13.362Z,7.29
2022-11-29T14:09:17.149Z,7.65
2022-11-29T14:11:36.096Z,7.72
2022-11-29T14:14:05.866Z,7.94
2022-11-29T14:16:38.115Z,7.49
2022-11-29T14:19:19.860Z,7.54
2022-11-29T14:22:15.741Z,7.62
2022-11-29T14:24:43.410Z,7.54
2022-11-29T14:27:47.457Z,7.56
2022-11-29T14:30:49.170Z,7.22
2022-11-29T14:33:29.152Z,7.56
2022-11-29T14:36:19.803Z,7.47
2022-11-29T14:38:51.985Z,7.70
2022-11-29T14:41:28.585Z,7.97
2022-11-29T14:44:15.584Z,7.85
2022-11-29T14:46:42.669Z,8.06
2022-11-29T14:49:22.257Z,8.09
2022-11-29T14:52:16.057Z,7.86
2022-11-29T14:54:54.680Z,8.13
2022-11-29T14:57:53.339Z,7.57
2022-11-29T15:00:21.550Z,7.78
2022-11-29T15:02:50.532Z,7.62
2022-11-29T15:05:22.153Z,7.66
2022-11-29T15:07:56.562Z,7.67
2022-11-29T15:10:28.135Z,7.59
2022-11-29T15:12:55.652Z,7.76
2022-11-29T15:15:40.666Z,7.80
2022-11-29T15:18:30.152Z,7.84
2022-11-29T15:21:14.639Z,7.84
2022-11-29T15:23:41.887Z,7.76
2022-11-29T15:26:17.008Z,7.99
2022-11-29T15:28:43.710Z,7.90
2022-11-29T15:31:13.039Z,8.13
2022-11-29T15:33:41.679Z,8.11
2022-11-29T15:36:15.900Z,8.29
2022-11-29T15:38:44.104Z,7.98
2022-11-29T15:41:22.024Z,7.90
2022-11-29T15:43:52.932Z,7.95
2022-11-29T15:46:20.548Z,7.43
2022-11-29T15:48:47.000Z,7.74
2022-11-29T15:51:24.124Z,8.12
2022-11-29T15:54:11.247Z,7.75
2022-11-29T15:56:44.854Z,8.13
2022-11-29T15:59:18.651Z,7.83
2022-11-29T16:01:49.034Z,7.85
2022-11-29T16:04:20.005Z,7.75
2022-11-29T16:06:49.541Z,7.68
2022-11-29T16:09:32.431Z,7.92
2022-11-29T16:12:01.126Z,7.83
2022-11-29T16:14:27.694Z,7.84
2022-11-29T16:16:56.956Z,7.96
2022-11-29T16:19:29.803Z,7.89
2022-11-29T16:22:13.647Z,7.93
2022-11-29T16:24:46.267Z,7.70
2022-11-29T16:27:13.227Z,7.71
2022-11-29T16:29:43.653Z,8.04
2022-11-29T16:32:20.243Z,7.97
2022-11-29T16:34:47.144Z,7.67
2022-11-29T16:37:18.092Z,7.40
2022-11-29T16:39:46.772Z,7.40
2022-11-29T16:42:20.627Z,7.13
2022-11-29T16:45:02.837Z,6.79
2022-11-29T16:47:30.730Z,6.61
2022-11-29T16:50:13.145Z,7.02
2022-11-29T16:52:40.931Z,6.77
2022-11-29T16:55:08.251Z,6.95
2022-11-29T16:57:35.749Z,6.83
2022-11-29T17:00:08.967Z,6.91
2022-11-29T17:02:35.410Z,6.87
2022-11-29T17:05:01.821Z,6.96
2022-11-29T17:07:30.929Z,7.12
2022-11-29T17:09:59.538Z,7.07
2022-11-29T17:12:26.026Z,7.08
2022-11-29T17:14:52.428Z,7.09
2022-11-29T17:17:19.363Z,6.88
2022-11-29T17:19:45.823Z,7.14
2022-11-29T17:22:12.559Z,7.37
2022-11-29T17:24:42.328Z,7.29
2022-11-29T17:27:13.976Z,6.67
2022-11-29T17:29:40.418Z,7.17
2022-11-29T17:32:06.904Z,6.98
2022-11-29T17:34:33.462Z,6.81
2022-11-29T17:36:59.926Z,6.75
2022-11-29T17:39:26.415Z,6.59
2022-11-29T17:41:52.875Z,6.88
2022-11-29T17:44:20.639Z,6.83
2022-11-29T17:46:47.063Z,6.71
2022-11-29T17:49:13.488Z,7.05
2022-11-29T17:51:51.639Z,6.91
2022-11-29T17:54:18.476Z,7.03
2022-11-29T17:56:45.151Z,7.14
2022-11-29T17:59:11.602Z,6.70
2022-11-29T18:01:39.526Z,6.77
2022-11-29T18:04:06.712Z,6.57
2022-11-29T18:06:35.458Z,6.81
2022-11-29T18:09:03.578Z,6.86
2022-11-29T18:11:37.515Z,6.27
2022-11-29T18:14:10.755Z,6.45
2022-11-29T18:16:38.657Z,6.70
2022-11-29T18:19:07.500Z,6.43
2022-11-29T18:21:34.733Z,6.64
2022-11-29T18:24:03.173Z,6.62
2022-11-29T18:26:30.827Z,6.76
2022-11-29T18:28:58.769Z,6.66
2022-11-29T18:31:28.164Z,6.45
2022-11-29T18:33:58.054Z,6.24
2022-11-29T18:36:27.877Z,6.51
2022-11-29T18:38:56.373Z,6.72
2022-11-29T18:41:23.470Z,6.82
2022-11-29T18:43:56.828Z,6.56
2022-11-29T18:46:23.785Z,6.88
2022-11-29T18:48:50.297Z,6.62
2022-11-29T18:51:20.069Z,6.72
2022-11-29T18:53:46.810Z,6.86
2022-11-29T18:56:15.509Z,6.76
2022-11-29T18:58:42.447Z,6.92
2022-11-29T19:01:10.543Z,6.97
2022-11-29T19:03:38.468Z,7.13
2022-11-29T19:06:06.739Z,6.97
2022-11-29T19:08:34.630Z,6.79
2022-11-29T19:11:04.373Z,7.07
2022-11-29T19:13:30.825Z,6.92
2022-11-29T19:15:57.299Z,6.88
2022-11-29T19:18:23.769Z,6.73
2022-11-29T19:20:50.535Z,6.70
2022-11-29T19:23:16.963Z,7.09
2022-11-29T19:25:44.717Z,7.03
2022-11-29T19:28:14.088Z,6.61
2022-11-29T19:30:41.008Z,6.75
2022-11-29T19:33:07.463Z,7.18
2022-11-29T19:35:34.797Z,6.92
2022-11-29T19:38:01.224Z,7.24
2022-11-29T19:40:27.626Z,6.81
2022-11-29T19:42:55.397Z,7.11
2022-11-29T19:45:22.115Z,6.98
2022-11-29T19:47:48.529Z,7.05
2022-11-29T19:50:15.183Z,6.91
2022-11-29T19:52:41.634Z,6.83
2022-11-29T19:55:08.936Z,6.73
2022-11-29T19:57:35.353Z,6.98
2022-11-29T20:00:03.645Z,7.06
2022-11-29T20:02:30.117Z,7.10
2022-11-29T20:04:56.767Z,7.06
2022-11-29T20:07:23.395Z,7.12
2022-11-29T20:09:49.844Z,7.01
2022-11-29T20:12:16.330Z,7.24
2022-11-29T20:14:42.767Z,7.04
2022-11-29T20:17:10.511Z,6.41
2022-11-29T20:19:36.956Z,6.43
2022-11-29T20:22:03.464Z,6.81
2022-11-29T20:24:34.885Z,6.77
2022-11-29T20:27:04.878Z,6.90
2022-11-29T20:29:31.325Z,6.09
2022-11-29T20:31:57.891Z,6.38
2022-11-29T20:34:26.138Z,6.75
2022-11-29T20:37:29.956Z,6.64
2022-11-29T20:39:59.936Z,6.87
2022-11-29T20:42:46.646Z,6.92
2022-11-29T20:45:14.715Z,6.54
2022-11-29T20:47:48.558Z,6.49
2022-11-29T20:50:22.982Z,6.11
2022-11-29T20:52:58.183Z,6.54
2022-11-29T20:55:24.817Z,6.59
2022-11-29T20:57:51.342Z,6.51
2022-11-29T21:00:18.333Z,6.83
2022-11-29T21:02:44.785Z,7.01
2022-11-29T21:05:11.234Z,6.41
2022-11-29T21:07:39.023Z,6.64
2022-11-29T21:10:06.883Z,6.83
2022-11-29T21:12:33.845Z,6.83
2022-11-29T21:15:00.775Z,6.41
2022-11-29T21:17:33.356Z,6.59
2022-11-29T21:20:00.769Z,6.45
2022-11-29T21:22:37.687Z,6.66
2022-11-29T21:25:15.075Z,6.45
2022-11-29T21:27:42.113Z,6.41
2022-11-29T21:30:18.021Z,6.17
2022-11-29T21:32:45.199Z,6.56
2022-11-29T21:35:11.850Z,6.18
2022-11-29T21:37:38.652Z,6.21
2022-11-29T21:40:08.323Z,5.76
2022-11-29T21:42:34.880Z,6.18
2022-11-29T21:45:01.571Z,6.03
2022-11-29T21:47:28.013Z,6.20
2022-11-29T21:49:54.410Z,6.18
2022-11-29T21:52:22.864Z,6.10
2022-11-29T21:54:49.770Z,6.34
2022-11-29T21:57:17.531Z,6.37
2022-11-29T21:59:43.953Z,5.91
2022-11-29T22:02:10.526Z,6.41
2022-11-29T22:04:37.035Z,6.15
2022-11-29T22:07:03.442Z,5.97
2022-11-29T22:09:29.838Z,5.99
2022-11-29T22:11:56.376Z,6.32
2022-11-29T22:14:24.273Z,6.05
2022-11-29T22:16:52.474Z,6.02
2022-11-29T22:19:20.565Z,6.02
2022-11-29T22:21:49.266Z,6.03
2022-11-29T22:24:17.217Z,6.11
2022-11-29T22:26:44.114Z,6.33
2022-11-29T22:29:10.818Z,6.49
2022-11-29T22:31:38.898Z,6.30
2022-11-29T22:34:05.388Z,6.04
2022-11-29T22:36:32.123Z,6.29
2022-11-29T22:38:58.702Z,6.15
2022-11-29T22:41:25.261Z,5.98
2022-11-29T22:43:51.728Z,5.91
2022-11-29T22:46:20.159Z,6.15
2022-11-29T22:48:49.493Z,5.96
2022-11-29T22:51:17.894Z,6.20
2022-11-29T22:53:49.232Z,6.15
2022-11-29T22:56:17.027Z,6.19
2022-11-29T22:58:43.671Z,6.21
2022-11-29T23:01:12.330Z,6.27
2022-11-29T23:03:42.265Z,6.00
2022-11-29T23:06:12.258Z,5.91
2022-11-29T23:08:39.921Z,6.07
2022-11-29T23:11:08.578Z,6.16
2022-11-29T23:13:36.771Z,6.13
2022-11-29T23:16:05.382Z,6.16
2022-11-29T23:18:32.302Z,6.26
2022-11-29T23:21:02.006Z,6.32
2022-11-29T23:23:30.363Z,6.22
2022-11-29T23:25:57.128Z,6.58
2022-11-29T23:28:23.997Z,6.25
2022-11-29T23:30:50.633Z,6.50
2022-11-29T23:33:17.278Z,6.50
2022-11-29T23:35:43.862Z,5.98
2022-11-29T23:38:10.279Z,6.04
2022-11-29T23:40:38.020Z,6.17
2022-11-29T23:43:04.444Z,6.05
2022-11-29T23:45:30.929Z,6.09
2022-11-29T23:47:57.693Z,6.18
2022-11-29T23:50:24.531Z,5.74
2022-11-29T23:52:55.203Z,5.84
2022-11-29T23:55:22.731Z,5.91
2022-11-29T23:57:51.210Z,6.13
